Time;durP1;ratioP1;P1;durP2;ratioP2;P2;SDS_P1;SDS_P2;PMS_P1;PMS_P2;Temp;Humidity;BMP_temperature;BMP_pressure;BME280_temperature;BME280_humidity;BME280_pressure;Samples;Min_cycle;Max_cycle;Signal;HPM_P1;HPM_P2
2023/07/24 00:02:58;;;;;;;9.20;4.90;;;;;;;21.84;57.19;98432.55;223512;183;138991;-63
2023/07/24 00:08:02;;;;;;;5.70;4.40;;;;;;;21.81;57.16;98425.75;223625;183;136503;-63
2023/07/24 00:13:05;;;;;;;7.90;4.80;;;;;;;21.77;57.38;98426.68;223639;184;144980;-63
2023/07/24 00:18:08;;;;;;;7.80;4.80;;;;;;;21.74;57.77;98423.51;223571;184;141071;-60
2023/07/24 00:23:11;;;;;;;7.40;4.50;;;;;;;21.71;58.39;98423.27;223653;184;137373;-63
2023/07/24 00:28:15;;;;;;;9.10;4.60;;;;;;;21.69;58.46;98419.16;223495;184;145668;-62
2023/07/24 00:33:18;;;;;;;5.70;4.10;;;;;;;21.67;58.70;98416.86;223584;184;138348;-63
2023/07/24 00:38:21;;;;;;;7.00;5.00;;;;;;;21.65;58.87;98410.42;223604;184;137962;-64
2023/07/24 00:43:24;;;;;;;10.40;4.80;;;;;;;21.62;58.79;98409.13;223628;184;146313;-64
2023/07/24 00:48:28;;;;;;;7.10;4.30;;;;;;;21.58;58.90;98407.61;223607;184;138935;-63
2023/07/24 00:53:32;;;;;;;9.10;4.80;;;;;;;21.58;59.32;98406.73;223519;183;136983;-63
2023/07/24 00:58:38;;;;;;;7.20;4.90;;;;;;;21.58;59.44;98408.31;223474;184;145657;-64
2023/07/24 01:03:43;;;;;;;6.10;4.30;;;;;;;21.58;59.06;98401.35;223599;184;138309;-63
2023/07/24 01:08:46;;;;;;;6.90;4.40;;;;;;;21.58;59.18;98398.49;223625;184;136430;-63
2023/07/24 01:14:03;;;;;;;6.70;4.60;;;;;;;21.57;59.65;98399.29;223461;184;147053;-62
2023/07/24 01:19:16;;;;;;;6.60;4.40;;;;;;;21.54;59.68;98401.41;223488;183;139111;-64
2023/07/24 01:24:37;;;;;;;7.30;4.50;;;;;;;21.53;60.05;98397.72;223573;184;136616;-64
2023/07/24 01:29:40;;;;;;;10.60;5.10;;;;;;;21.53;60.25;98393.96;223538;184;145881;-64
2023/07/24 01:34:44;;;;;;;10.10;5.30;;;;;;;21.53;60.62;98387.88;223546;184;138796;-63
2023/07/24 01:39:48;;;;;;;10.60;5.30;;;;;;;21.51;60.95;98381.56;223548;184;136572;-63
2023/07/24 01:44:55;;;;;;;9.10;5.00;;;;;;;21.52;61.33;98381.98;223470;184;145310;-63
2023/07/24 01:49:58;;;;;;;9.90;4.90;;;;;;;21.53;61.57;98385.17;223560;183;138315;-63
2023/07/24 01:55:02;;;;;;;11.10;4.80;;;;;;;21.56;61.69;98389.85;223625;184;137681;-63
2023/07/24 02:02:07;;;;;;;7.40;4.10;;;;;;;21.67;61.39;98391.83;221853;188;664494;-63
2023/07/24 02:07:11;;;;;;;6.30;4.70;;;;;;;21.71;60.59;98389.69;223352;185;137103;-63
2023/07/24 02:12:14;;;;;;;7.60;4.00;;;;;;;21.83;59.38;98381.77;223748;183;143512;-63
2023/07/24 02:17:18;;;;;;;6.90;4.20;;;;;;;21.98;58.71;98378.89;223812;183;138785;-63
2023/07/24 02:22:21;;;;;;;8.40;4.80;;;;;;;22.12;56.33;98385.13;223803;183;139805;-63
2023/07/24 02:27:27;;;;;;;7.40;4.00;;;;;;;22.28;55.40;98384.64;223638;183;143172;-64
2023/07/24 02:32:33;;;;;;;5.30;3.80;;;;;;;22.40;54.16;98378.70;223731;183;138791;-63
2023/07/24 02:37:37;;;;;;;5.00;3.90;;;;;;;22.52;52.83;98375.55;223799;183;136804;-63
2023/07/24 02:42:40;;;;;;;6.20;4.00;;;;;;;22.65;51.64;98374.56;223824;183;143511;-63
2023/07/24 02:47:44;;;;;;;7.50;3.50;;;;;;;22.77;50.96;98371.58;223819;183;138468;-63
2023/07/24 02:52:47;;;;;;;6.50;3.70;;;;;;;22.88;50.18;98368.84;223740;183;136942;-63
2023/07/24 02:57:51;;;;;;;5.50;4.00;;;;;;;22.97;49.59;98368.44;223625;183;145235;-63
2023/07/24 03:02:54;;;;;;;4.50;3.60;;;;;;;23.05;49.10;98372.66;223666;183;138588;-63
2023/07/24 03:07:58;;;;;;;5.90;3.30;;;;;;;23.13;49.46;98368.66;223644;183;136403;-63
2023/07/24 03:13:01;;;;;;;6.50;3.80;;;;;;;23.08;50.04;98374.38;223576;182;147312;-63
2023/07/24 03:18:05;;;;;;;7.20;3.70;;;;;;;23.08;50.13;98373.02;223700;182;138972;-59
2023/07/24 03:23:08;;;;;;;7.70;4.20;;;;;;;22.96;52.03;98372.96;223845;181;136888;-61
2023/07/24 03:28:12;;;;;;;8.30;4.10;;;;;;;22.81;53.85;98370.88;223738;181;145767;-64
2023/07/24 03:33:16;;;;;;;7.30;4.20;;;;;;;22.67;55.39;98371.91;223668;181;138389;-63
2023/07/24 03:38:19;;;;;;;7.10;4.10;;;;;;;22.54;55.98;98369.36;223672;181;136867;-63
2023/07/24 03:43:23;;;;;;;10.20;4.40;;;;;;;22.43;56.25;98364.79;223632;181;145312;-63
2023/07/24 03:48:26;;;;;;;7.50;4.20;;;;;;;22.35;56.30;98366.61;223696;181;138962;-63
2023/07/24 03:53:30;;;;;;;5.10;3.90;;;;;;;22.29;56.40;98374.26;223703;181;137135;-63
2023/07/24 03:58:34;;;;;;;;;;;;;;;22.22;56.64;98376.58;223652;181;145496;-64
2023/07/24 04:03:38;;;;;;;9.90;4.10;;;;;;;22.14;57.29;98371.82;223644;181;138480;-63
2023/07/24 04:08:41;;;;;;;8.10;4.50;;;;;;;22.11;57.78;98375.84;223672;181;137005;-63
2023/07/24 04:13:44;;;;;;;7.90;4.30;;;;;;;22.07;58.67;98377.41;223671;181;145218;-63
2023/07/24 04:18:47;;;;;;;7.60;4.10;;;;;;;22.05;58.82;98374.96;223644;181;138243;-63
2023/07/24 04:23:51;;;;;;;11.00;4.40;;;;;;;22.03;58.50;98375.09;223813;182;136708;-63
2023/07/24 04:28:54;;;;;;;7.70;4.30;;;;;;;22.02;58.45;98379.29;223755;181;144929;-63
2023/07/24 04:33:57;;;;;;;12.30;4.50;;;;;;;22.02;58.60;98381.88;223725;181;137887;-63
2023/07/24 04:39:00;;;;;;;9.70;4.20;;;;;;;22.03;59.33;98384.38;223744;182;137364;-64
2023/07/24 04:44:03;;;;;;;10.90;4.90;;;;;;;22.08;59.64;98383.96;223611;181;145819;-63
2023/07/24 04:49:06;;;;;;;8.10;4.90;;;;;;;22.17;60.02;98385.09;223672;181;148132;-64
2023/07/24 05:06:15;;;;;;;9.80;4.80;;;;;;;22.63;59.93;98380.95;222820;188;666381;-65
2023/07/24 05:11:19;;;;;;;11.00;5.00;;;;;;;22.74;59.21;98372.95;223777;182;135881;-64
2023/07/24 05:16:22;;;;;;;9.30;4.80;;;;;;;22.85;58.34;98368.21;223786;182;144236;-65
2023/07/24 05:21:25;;;;;;;9.80;4.70;;;;;;;22.98;57.76;98365.95;223780;182;138433;-64
2023/07/24 05:26:28;;;;;;;8.70;4.70;;;;;;;23.17;56.24;98362.86;223791;182;137116;-65
2023/07/24 05:31:35;;;;;;;6.50;4.60;;;;;;;23.36;55.41;98368.06;223819;182;143456;-65
2023/07/24 06:02:08;;;;;;;10.00;4.80;;;;;;;24.24;53.21;98368.80;222304;190;666406;-64
2023/07/24 06:07:11;;;;;;;11.20;4.80;;;;;;;24.35;53.01;98372.88;223395;185;136521;-64
2023/07/24 06:12:14;;;;;;;9.80;4.50;;;;;;;24.46;53.04;98374.83;223721;183;143432;-64
2023/07/24 06:17:18;;;;;;;7.70;5.00;;;;;;;24.57;52.90;98370.08;223827;183;139019;-64
2023/07/24 06:22:21;;;;;;;9.40;4.60;;;;;;;24.73;53.21;98361.70;223701;183;136919;-65
2023/07/24 06:27:24;;;;;;;8.20;4.60;;;;;;;24.86;52.85;98362.55;223700;183;143869;-64
2023/07/24 06:32:27;;;;;;;10.20;4.50;;;;;;;24.94;52.91;98363.95;223778;183;138332;-63
2023/07/24 06:37:31;;;;;;;6.20;4.70;;;;;;;25.04;53.01;98360.56;223803;183;136761;-64
2023/07/24 06:42:34;;;;;;;8.80;4.60;;;;;;;25.15;53.05;98361.15;223814;183;143616;-64
2023/07/24 06:47:37;;;;;;;9.00;4.90;;;;;;;25.27;52.92;98349.63;223721;183;138338;-63
2023/07/24 06:52:42;;;;;;;6.80;5.00;;;;;;;25.37;52.76;98347.93;223802;183;136263;-63
2023/07/24 06:57:46;;;;;;;9.40;5.10;;;;;;;25.43;52.46;98354.02;223558;183;146483;-63
2023/07/24 07:02:49;;;;;;;6.50;5.00;;;;;;;25.51;52.52;98354.70;223629;182;138994;-61
2023/07/24 07:07:52;;;;;;;6.20;4.60;;;;;;;25.65;52.15;98355.02;223671;183;137500;-63
2023/07/24 07:12:55;;;;;;;11.20;5.20;;;;;;;25.78;51.91;98350.83;223704;184;145320;-63
2023/07/24 07:17:59;;;;;;;12.50;6.50;;;;;;;25.93;51.40;98345.64;223617;183;139705;-63
2023/07/24 07:23:02;;;;;;;16.20;13.30;;;;;;;26.04;50.40;98345.98;223643;183;137086;-63
2023/07/24 07:28:06;;;;;;;9.40;5.40;;;;;;;26.11;50.33;98347.64;223588;183;145296;-63
2023/07/24 07:33:09;;;;;;;9.00;5.70;;;;;;;26.24;50.17;98350.78;223706;183;138254;-63
2023/07/24 07:38:12;;;;;;;9.50;5.00;;;;;;;26.38;50.04;98350.16;223602;184;137642;-63
2023/07/24 07:43:16;;;;;;;9.10;6.60;;;;;;;26.45;49.26;98345.61;223595;182;145673;-63
2023/07/24 07:48:19;;;;;;;8.60;5.10;;;;;;;26.56;48.16;98343.08;223771;183;138857;-63
2023/07/24 07:53:22;;;;;;;7.80;5.10;;;;;;;26.67;46.84;98335.95;223718;182;136810;-64
2023/07/24 07:58:25;;;;;;;7.20;4.90;;;;;;;26.73;45.05;98325.92;223639;183;146934;-63
2023/07/24 08:03:28;;;;;;;6.80;4.80;;;;;;;26.80;44.86;98320.89;223559;183;138404;-63
2023/07/24 08:08:32;;;;;;;8.60;5.40;;;;;;;26.88;44.15;98311.15;223671;183;136674;-63
2023/07/24 08:13:35;;;;;;;7.30;5.00;;;;;;;26.97;43.24;98311.23;223580;183;147141;-63
2023/07/24 08:18:38;;;;;;;7.90;5.10;;;;;;;27.11;42.72;98307.98;223676;183;139057;-64
2023/07/24 08:23:42;;;;;;;8.40;5.00;;;;;;;27.28;42.20;98306.83;223588;183;137119;-63
2023/07/24 08:28:45;;;;;;;6.90;4.70;;;;;;;27.34;41.71;98308.85;223641;183;146888;-63
2023/07/24 08:33:48;;;;;;;10.90;5.60;;;;;;;27.36;41.24;98300.05;223653;182;138312;-63
2023/07/24 08:38:51;;;;;;;10.80;5.30;;;;;;;27.42;40.61;98293.44;223718;183;136851;-63
2023/07/24 08:43:55;;;;;;;7.50;5.30;;;;;;;27.50;39.40;98287.66;223715;181;145066;-63
2023/07/24 08:48:58;;;;;;;9.30;5.20;;;;;;;27.60;39.75;98288.34;223776;181;138391;-63
2023/07/24 08:54:02;;;;;;;9.90;5.40;;;;;;;27.71;39.60;98292.54;223845;181;139631;-64
2023/07/24 08:59:05;;;;;;;7.00;5.00;;;;;;;27.79;39.52;98277.93;223763;181;145365;-63
2023/07/24 09:04:09;;;;;;;6.40;4.60;;;;;;;27.85;39.36;98273.42;223695;182;138289;-63
2023/07/24 09:09:14;;;;;;;10.50;4.90;;;;;;;27.95;39.03;98276.15;223757;181;136454;-63
2023/07/24 09:14:23;;;;;;;;;;;;;;;28.06;39.00;98267.27;223675;181;145873;-62
2023/07/24 09:19:26;;;;;;;6.40;5.10;;;;;;;28.11;39.00;98262.85;223659;182;139620;-67
2023/07/24 09:24:29;;;;;;;7.20;5.00;;;;;;;28.16;39.52;98269.88;223744;181;140064;-63
2023/07/24 09:29:34;;;;;;;9.20;5.30;;;;;;;28.33;38.61;98268.23;223719;181;145472;-63
2023/07/24 09:34:42;;;;;;;8.10;5.10;;;;;;;28.55;37.61;98272.35;223617;182;138741;-64
2023/07/24 09:39:46;;;;;;;7.10;5.20;;;;;;;28.70;36.64;98266.96;223691;181;137133;-63
2023/07/24 09:44:49;;;;;;;7.80;5.00;;;;;;;28.73;36.49;98256.98;223708;181;145300;-64
2023/07/24 09:49:53;;;;;;;10.50;5.40;;;;;;;28.78;36.57;98247.95;223666;181;138269;-65
2023/07/24 09:55:10;;;;;;;9.30;5.60;;;;;;;28.84;36.89;98230.70;223773;181;137406;-63
2023/07/24 10:00:19;;;;;;;7.40;5.60;;;;;;;28.97;37.06;98221.13;223627;182;145066;-63
2023/07/24 10:05:22;;;;;;;7.90;5.50;;;;;;;29.06;36.15;98219.92;223708;181;139185;-63
2023/07/24 10:10:29;;;;;;;7.30;6.00;;;;;;;29.10;36.07;98218.64;223750;181;137263;-62
2023/07/24 10:15:32;;;;;;;9.60;5.70;;;;;;;29.18;36.63;98193.81;223723;182;145332;-64
2023/07/24 10:20:41;;;;;;;9.80;6.00;;;;;;;29.14;36.32;98179.58;223772;181;140039;-63
2023/07/24 10:25:45;;;;;;;8.80;6.10;;;;;;;29.17;35.81;98189.61;223733;182;136370;-63
2023/07/24 10:30:55;;;;;;;8.20;6.50;;;;;;;29.24;35.70;98193.08;223675;181;145471;-63
2023/07/24 10:36:10;;;;;;;8.80;6.50;;;;;;;29.16;34.73;98198.95;223798;181;138426;-63
2023/07/24 10:41:14;;;;;;;9.00;6.60;;;;;;;29.08;33.67;98204.08;223736;181;137289;-63
2023/07/24 10:46:20;;;;;;;8.90;6.60;;;;;;;29.14;33.94;98192.73;223655;182;145258;-62
2023/07/24 10:51:23;;;;;;;9.40;6.30;;;;;;;29.30;34.26;98195.80;223782;181;140648;-63
2023/07/24 10:56:26;;;;;;;9.90;6.80;;;;;;;29.49;33.55;98197.95;223758;181;136722;-63
2023/07/24 11:01:31;;;;;;;13.70;7.30;;;;;;;29.49;32.86;98196.37;223692;181;145008;-63
2023/07/24 11:06:35;;;;;;;11.60;7.10;;;;;;;29.42;31.96;98193.30;223633;182;138224;-63
2023/07/24 11:11:38;;;;;;;11.50;7.30;;;;;;;29.35;31.84;98182.80;223742;182;137112;-63
2023/07/24 11:16:49;;;;;;;28.50;24.80;;;;;;;29.31;32.08;98180.97;223655;181;144964;-63
2023/07/24 11:21:52;;;;;;;10.30;7.50;;;;;;;29.35;32.57;98182.10;223714;181;138499;-62
2023/07/24 11:26:56;;;;;;;11.00;6.40;;;;;;;29.36;32.58;98180.42;223800;182;136715;-64
2023/07/24 11:31:59;;;;;;;9.00;6.60;;;;;;;29.32;32.57;98183.18;223606;181;145758;-63
2023/07/24 11:37:03;;;;;;;15.30;7.40;;;;;;;29.29;32.98;98179.20;223595;182;140212;-63
2023/07/24 11:42:06;;;;;;;77.00;65.60;;;;;;;29.22;32.88;98177.89;223750;181;136751;-63
2023/07/24 11:47:10;;;;;;;10.20;8.40;;;;;;;29.15;33.48;98172.52;223641;182;146168;-63
2023/07/24 11:52:14;;;;;;;11.30;7.10;;;;;;;29.21;33.68;98162.73;223601;181;139205;-65
2023/07/24 11:57:17;;;;;;;10.40;7.50;;;;;;;29.30;33.80;98157.04;223392;181;138821;-64
2023/07/24 12:02:20;;;;;;;8.80;6.80;;;;;;;29.41;33.86;98157.40;223651;181;145980;-62
2023/07/24 12:07:32;;;;;;;12.10;7.60;;;;;;;29.55;33.47;98150.82;223683;182;140107;-64
2023/07/24 12:12:40;;;;;;;12.60;7.20;;;;;;;29.75;33.81;98140.00;223650;181;138888;-64
2023/07/24 12:17:43;;;;;;;13.20;7.60;;;;;;;29.86;33.43;98135.13;223770;181;145192;-64
2023/07/24 12:22:47;;;;;;;10.90;7.20;;;;;;;29.87;32.44;98128.15;223683;182;138372;-64
2023/07/24 12:27:50;;;;;;;10.80;7.60;;;;;;;30.02;31.94;98112.86;223643;181;138274;-64
2023/07/24 12:32:54;;;;;;;9.90;8.00;;;;;;;30.31;31.83;98103.23;223696;182;145376;-64
2023/07/24 12:37:57;;;;;;;9.80;7.60;;;;;;;30.63;31.25;98091.30;223715;181;138436;-62
2023/07/24 12:43:01;;;;;;;13.00;8.50;;;;;;;30.78;31.06;98078.23;223642;182;137204;-57
2023/07/24 12:48:04;;;;;;;57.80;51.80;;;;;;;31.06;31.02;98062.20;223552;181;145623;-62
2023/07/24 12:53:07;;;;;;;16.40;11.10;;;;;;;31.06;31.14;98055.06;223370;182;138322;-62
2023/07/24 12:58:17;;;;;;;13.10;8.30;;;;;;;30.99;30.86;98047.80;223584;181;137691;-65
2023/07/24 13:03:21;;;;;;;11.40;8.60;;;;;;;31.05;31.21;98044.55;223421;182;146077;-64
2023/07/24 13:08:24;;;;;;;10.30;7.90;;;;;;;31.28;31.35;98035.65;223371;181;139344;-64
2023/07/24 13:13:30;;;;;;;11.10;7.80;;;;;;;31.21;30.91;98027.95;223452;181;136493;-62
2023/07/24 13:18:33;;;;;;;9.50;6.90;;;;;;;31.09;31.17;98020.41;223412;182;146149;-64
2023/07/24 13:23:37;;;;;;;46.80;38.70;;;;;;;31.20;32.38;98012.38;223420;203;138986;-62
2023/07/24 13:28:40;;;;;;;18.90;11.50;;;;;;;31.58;34.27;97999.31;223424;181;137514;-63
2023/07/24 13:33:43;;;;;;;15.80;10.90;;;;;;;31.88;31.53;97982.84;223449;182;146767;-66
2023/07/24 13:38:50;;;;;;;13.40;9.30;;;;;;;32.09;31.27;97966.28;223499;182;139190;-61
2023/07/24 13:43:55;;;;;;;10.10;8.00;;;;;;;32.19;31.49;97957.23;223465;181;137296;-65
2023/07/24 13:48:58;;;;;;;83.70;74.60;;;;;;;32.35;31.47;97949.10;223382;181;145554;-66
2023/07/24 13:54:02;;;;;;;11.90;9.30;;;;;;;32.41;31.35;97944.11;223593;181;138966;-63
2023/07/24 16:05:28;;;;;;;16.20;11.30;;;;;;;29.63;38.96;97767.80;222220;193;666573;-66
2023/07/24 16:10:32;;;;;;;19.30;11.30;;;;;;;29.52;39.02;97765.40;223759;182;136811;-67
2023/07/24 16:15:36;;;;;;;42.00;37.00;;;;;;;29.43;39.60;97760.98;223728;182;143506;-64
2023/07/24 16:20:42;;;;;;;19.00;13.10;;;;;;;29.39;40.06;97757.11;223662;182;139169;-65
2023/07/24 16:25:49;;;;;;;18.40;9.50;;;;;;;29.34;40.92;97755.89;223792;182;137234;-67
2023/07/24 16:30:56;;;;;;;59.00;52.50;;;;;;;29.27;40.92;97747.44;223897;182;143453;-65
2023/07/24 16:36:01;;;;;;;22.50;15.40;;;;;;;29.21;41.23;97744.64;223802;182;139004;-64
2023/07/24 16:41:04;;;;;;;23.10;17.10;;;;;;;29.15;41.88;97741.90;223807;183;137096;-65
2023/07/24 16:46:07;;;;;;;350.50;305.50;;;;;;;29.09;41.82;97738.67;223759;183;143236;-66
2023/07/24 16:51:35;;;;;;;35.70;26.80;;;;;;;29.00;41.51;97735.59;223696;182;138774;-66
2023/07/24 16:56:40;;;;;;;19.70;12.60;;;;;;;28.90;42.05;97727.16;223774;182;137107;-67
2023/07/24 17:01:44;;;;;;;;;;;;;;;28.83;42.02;97715.27;223690;182;145723;-66
2023/07/24 17:06:48;;;;;;;62.00;54.40;;;;;;;28.73;41.67;97710.09;223740;182;139642;-65
2023/07/24 17:11:51;;;;;;;31.10;25.30;;;;;;;28.67;41.75;97727.11;223647;182;137504;-65
2023/07/24 17:16:55;;;;;;;26.30;10.40;;;;;;;28.57;40.79;97791.14;223579;183;145187;-65
2023/07/24 17:21:58;;;;;;;23.30;6.50;;;;;;;28.30;40.43;97776.73;223530;181;138798;-65
2023/07/24 17:27:01;;;;;;;16.70;7.30;;;;;;;27.76;41.12;97748.56;223788;181;136796;-65
2023/07/24 17:32:05;;;;;;;9.10;5.10;;;;;;;27.23;42.96;97806.88;223768;181;145203;-66
2023/07/24 17:37:08;;;;;;;10.50;4.10;;;;;;;26.74;44.71;97821.29;223827;181;138372;-63
2023/07/24 17:42:16;;;;;;;14.20;5.50;;;;;;;26.30;47.64;97826.66;223758;181;137005;-65
2023/07/24 17:47:19;;;;;;;18.20;7.30;;;;;;;25.83;51.18;97854.81;223740;181;145511;-63
2023/07/24 17:52:23;;;;;;;16.80;6.40;;;;;;;25.31;54.25;97831.45;223584;181;138683;-64
2023/07/24 17:57:27;;;;;;;11.60;6.70;;;;;;;24.93;55.96;97820.81;223757;181;137091;-63
2023/07/24 18:02:30;;;;;;;13.40;6.10;;;;;;;24.59;57.37;97879.58;223728;181;145778;-62
2023/07/24 18:07:33;;;;;;;10.10;5.40;;;;;;;24.29;57.63;97928.18;223651;181;140320;-62
2023/07/24 18:12:36;;;;;;;9.70;6.60;;;;;;;23.96;59.16;97939.56;223817;181;137514;-62
2023/07/24 18:17:39;;;;;;;11.90;7.60;;;;;;;23.66;60.17;97970.51;223732;181;146125;-62
2023/07/24 18:22:43;;;;;;;12.70;7.70;;;;;;;23.53;60.84;97988.96;223677;181;138335;-62
2023/07/24 18:27:46;;;;;;;15.40;8.50;;;;;;;23.43;61.80;97988.06;223807;181;139724;-62
2023/07/24 18:32:49;;;;;;;12.30;7.60;;;;;;;23.25;63.55;97999.42;223733;181;146303;-63
2023/07/24 18:37:52;;;;;;;13.20;8.40;;;;;;;23.22;63.94;97993.02;223801;181;139170;-63
2023/07/24 18:42:55;;;;;;;10.60;7.50;;;;;;;23.25;64.37;98006.69;223774;181;137649;-62
2023/07/24 18:48:01;;;;;;;13.40;8.60;;;;;;;23.26;64.40;98023.79;223783;181;145195;-59
2023/07/24 18:53:04;;;;;;;12.70;8.70;;;;;;;23.20;65.28;98011.27;223681;181;138880;-61
2023/07/24 19:02:10;;;;;;;11.40;8.00;;;;;;;23.03;66.38;97993.95;220789;193;666675;-61
2023/07/24 19:07:13;;;;;;;11.70;7.40;;;;;;;22.90;67.09;97973.66;223564;184;136307;-62
2023/07/24 19:12:16;;;;;;;13.80;8.10;;;;;;;22.87;67.57;97926.42;223169;182;143994;-62
2023/07/24 19:17:20;;;;;;;11.10;7.20;;;;;;;22.85;68.54;97899.91;223783;182;138972;-62
2023/07/24 19:22:23;;;;;;;9.80;7.10;;;;;;;22.86;69.06;97883.93;223807;182;137045;-62
2023/07/24 19:27:26;;;;;;;10.80;8.10;;;;;;;22.75;69.71;97879.91;223790;182;143311;-61
2023/07/24 19:32:30;;;;;;;12.10;7.60;;;;;;;22.73;69.96;97873.02;223715;182;138476;-61
2023/07/24 19:37:33;;;;;;;12.50;7.40;;;;;;;22.77;69.91;97861.05;223768;182;137176;-61
2023/07/24 19:42:37;;;;;;;12.00;7.30;;;;;;;22.77;70.07;97834.52;223829;182;143391;-62
2023/07/24 19:47:40;;;;;;;13.50;8.30;;;;;;;22.72;70.21;97838.33;223774;182;139222;-61
2023/07/24 19:52:47;;;;;;;14.50;8.70;;;;;;;22.73;70.28;97829.16;223821;183;139719;-61
2023/07/24 19:57:52;;;;;;;10.90;7.80;;;;;;;22.72;70.52;97803.86;223796;181;145196;-62
2023/07/24 20:02:55;;;;;;;12.70;8.60;;;;;;;22.79;70.64;97808.02;223715;181;139009;-62
2023/07/24 20:07:59;;;;;;;13.70;8.70;;;;;;;22.81;70.46;97830.31;223772;181;142030;-62
2023/07/24 20:13:02;;;;;;;13.90;9.60;;;;;;;22.81;70.42;97837.75;223725;181;145784;-61
2023/07/24 20:18:05;;;;;;;15.50;9.40;;;;;;;22.83;70.36;97859.50;223732;181;138733;-62
2023/07/24 20:23:08;;;;;;;15.50;8.80;;;;;;;22.80;70.33;97893.25;223766;181;137146;-62
2023/07/24 20:28:12;;;;;;;12.10;8.50;;;;;;;22.70;70.79;97925.59;223749;181;145171;-63
2023/07/24 20:33:16;;;;;;;12.70;8.80;;;;;;;22.62;71.34;97897.50;223745;181;139465;-60
2023/07/24 20:38:24;;;;;;;11.60;7.40;;;;;;;22.54;71.03;97844.70;223680;181;139747;-61
2023/07/24 20:43:28;;;;;;;14.70;8.80;;;;;;;22.48;70.96;97812.98;223711;182;145287;-61
2023/07/24 20:48:31;;;;;;;9.90;6.60;;;;;;;22.36;71.06;97801.33;223727;181;138150;-63
2023/07/24 20:53:35;;;;;;;13.50;7.40;;;;;;;22.28;71.47;97751.66;223789;181;137177;-62
2023/07/24 20:58:40;;;;;;;12.40;7.30;;;;;;;22.32;72.17;97718.95;223689;181;145667;-63
2023/07/24 21:03:44;;;;;;;10.10;6.30;;;;;;;22.28;71.80;97757.05;223721;181;138415;-63
2023/07/24 21:08:47;;;;;;;10.50;7.00;;;;;;;22.25;71.77;97773.70;223727;181;137088;-62
2023/07/24 21:13:50;;;;;;;10.10;6.40;;;;;;;22.20;71.92;97776.50;223789;181;145855;-62
2023/07/24 21:18:54;;;;;;;8.80;5.80;;;;;;;22.21;71.48;97774.39;223684;181;138258;-63
2023/07/24 21:23:57;;;;;;;9.80;6.00;;;;;;;22.23;71.48;97782.83;223673;181;137409;-62
2023/07/24 21:29:00;;;;;;;13.00;7.10;;;;;;;22.23;71.16;97774.86;223821;181;145246;-62
2023/07/24 21:34:03;;;;;;;8.60;5.90;;;;;;;22.26;71.20;97772.50;223764;181;140908;-63
2023/07/24 21:39:06;;;;;;;10.70;6.40;;;;;;;22.21;71.18;97749.30;223744;182;149971;-61
2023/07/24 21:44:14;;;;;;;9.50;6.00;;;;;;;22.14;71.76;97732.52;224570;178;145947;-62
2023/07/24 21:49:26;;;;;;;7.50;5.10;;;;;;;22.13;71.64;97735.80;224669;178;138811;-63
2023/07/24 21:54:30;;;;;;;11.40;6.90;;;;;;;22.30;71.48;97754.25;224557;178;138001;-62
2023/07/24 21:59:33;;;;;;;9.00;6.20;;;;;;;22.35;71.41;97759.08;224747;178;145405;-64
2023/07/24 22:04:36;;;;;;;8.60;6.00;;;;;;;22.34;71.78;97752.42;224563;178;138668;-63
2023/07/24 22:09:40;;;;;;;10.30;6.70;;;;;;;22.30;71.75;97747.76;224794;178;137573;-63
2023/07/24 22:14:43;;;;;;;8.10;5.70;;;;;;;22.25;72.07;97735.80;224721;178;147005;-63
2023/07/24 22:19:46;;;;;;;8.50;5.60;;;;;;;22.23;72.29;97736.45;224681;179;138984;-63
2023/07/24 22:24:49;;;;;;;7.80;5.30;;;;;;;22.31;71.97;97741.83;224722;178;137802;-63
2023/07/24 22:29:54;;;;;;;8.40;5.10;;;;;;;22.38;71.11;97717.09;224799;178;146200;-62
2023/07/24 22:34:57;;;;;;;7.30;5.50;;;;;;;22.31;70.99;97705.35;224781;178;138575;-62
2023/07/24 22:40:00;;;;;;;7.60;5.70;;;;;;;22.21;71.31;97704.25;224720;178;136726;-62
2023/07/24 22:45:04;;;;;;;7.50;5.50;;;;;;;22.16;71.64;97700.60;224668;179;147982;-61
2023/07/24 22:50:08;;;;;;;7.70;5.10;;;;;;;22.08;71.98;97716.05;224717;178;138781;-63
2023/07/24 22:55:11;;;;;;;9.00;5.90;;;;;;;22.07;72.00;97721.67;224783;178;138074;-64
2023/07/24 23:00:14;;;;;;;9.60;5.60;;;;;;;22.17;71.56;97718.52;224746;178;145301;-63
2023/07/24 23:05:18;;;;;;;7.80;5.60;;;;;;;22.21;71.35;97726.52;224644;179;138400;-63
2023/07/24 23:10:21;;;;;;;9.40;5.80;;;;;;;22.29;70.90;97731.98;224625;177;137480;-63
2023/07/24 23:15:24;;;;;;;8.00;5.70;;;;;;;22.25;70.77;97742.09;224686;179;145068;-63
2023/07/24 23:20:27;;;;;;;9.60;6.00;;;;;;;22.22;70.60;97748.77;224684;179;138543;-62
2023/07/24 23:25:34;;;;;;;8.70;5.50;;;;;;;22.23;70.62;97756.97;224687;178;138013;-62
2023/07/24 23:30:40;;;;;;;14.50;5.80;;;;;;;22.27;70.80;97758.61;224689;178;145302;-62
2023/07/24 23:35:44;;;;;;;9.90;6.60;;;;;;;22.29;70.69;97754.63;224804;178;138951;-61
2023/07/24 23:40:59;;;;;;;9.60;6.00;;;;;;;22.31;70.53;97756.39;224730;178;137378;-62
2023/07/24 23:46:10;;;;;;;9.70;5.70;;;;;;;22.22;70.40;97755.17;224700;179;146238;-61
2023/07/24 23:51:22;;;;;;;9.10;5.80;;;;;;;22.09;70.67;97747.31;224637;178;138965;-62
2023/07/24 23:56:30;;;;;;;12.50;5.60;;;;;;;22.08;71.08;97735.80;224484;179;138168;-62
